Time;durP1;ratioP1;P1;durP2;ratioP2;P2;SDS_P1;SDS_P2;PMS_P1;PMS_P2;Temp;Humidity;BMP_temperature;BMP_pressure;BME280_temperature;BME280_humidity;BME280_pressure;Samples;Min_cycle;Max_cycle;Signal;HPM_P1;HPM_P2
2023/01/22 01:05:30;;;;;;;51.60;26.10;;;;;;;3.93;95.38;100431.84;106438;1267;213420;-40
2023/01/22 01:07:57;;;;;;;42.10;25.30;;;;;;;3.92;95.99;100433.90;106611;1266;62651;-40
2023/01/22 01:10:24;;;;;;;47.70;23.80;;;;;;;3.90;96.24;100433.92;106634;1266;73437;-40
2023/01/22 01:12:51;;;;;;;46.40;24.50;;;;;;;3.92;95.97;100439.42;106697;1266;68373;-40
2023/01/22 01:15:18;;;;;;;41.00;25.30;;;;;;;3.96;95.65;100441.19;106640;1266;74297;-40
2023/01/22 01:17:46;;;;;;;41.50;25.00;;;;;;;3.97;95.73;100441.30;106637;1266;60518;-40
2023/01/22 01:20:13;;;;;;;41.80;24.50;;;;;;;3.98;95.72;100445.30;106612;1266;61249;-40
2023/01/22 01:22:40;;;;;;;41.50;23.60;;;;;;;3.94;95.29;100439.57;106650;1265;73133;-40
2023/01/22 01:25:07;;;;;;;39.50;23.10;;;;;;;4.03;94.81;100454.69;106705;1266;70796;-40
2023/01/22 01:27:34;;;;;;;41.00;22.60;;;;;;;4.03;94.60;100456.61;106517;1267;73113;-40
2023/01/22 01:30:01;;;;;;;39.10;21.70;;;;;;;4.01;94.66;100452.92;106992;1260;63154;-40
2023/01/22 01:32:28;;;;;;;38.80;22.90;;;;;;;4.07;94.32;100458.02;107023;1257;61755;-40
2023/01/22 01:34:56;;;;;;;41.30;23.30;;;;;;;4.13;93.91;100456.64;107058;1259;74206;-40
2023/01/22 01:37:23;;;;;;;56.30;23.10;;;;;;;4.15;93.43;100461.86;107040;1263;70095;-40
2023/01/22 01:39:51;;;;;;;48.80;22.60;;;;;;;4.15;93.14;100462.14;107029;1257;74261;-40
2023/01/22 01:42:28;;;;;;;34.60;20.30;;;;;;;4.10;92.72;100470.36;107015;1263;61361;-40
2023/01/22 01:45:17;;;;;;;35.50;21.50;;;;;;;4.13;92.54;100475.52;107172;1259;60296;-40
2023/01/22 01:47:44;;;;;;;45.20;21.80;;;;;;;4.18;92.09;100476.36;107019;1259;73444;-40
2023/01/22 01:50:11;;;;;;;41.70;22.20;;;;;;;4.18;92.08;100473.95;107043;1258;67685;-40
2023/01/22 01:52:38;;;;;;;34.70;21.60;;;;;;;4.20;92.00;100474.56;106992;1263;74536;-40
2023/01/22 01:55:06;;;;;;;34.80;21.00;;;;;;;4.25;91.45;100478.95;107002;1261;62831;-40
2023/01/22 01:57:33;;;;;;;40.40;22.10;;;;;;;4.28;90.85;100481.59;107023;1260;59691;-40
2023/01/22 02:00:00;;;;;;;37.60;21.10;;;;;;;4.27;90.58;100488.73;107011;1264;74298;-40
2023/01/22 02:02:27;;;;;;;42.60;20.80;;;;;;;4.26;90.46;100490.65;106859;1259;70931;-40
2023/01/22 02:04:54;;;;;;;35.50;22.20;;;;;;;4.27;90.47;100493.91;107068;1259;71398;-40
2023/01/22 02:07:22;;;;;;;30.80;20.40;;;;;;;4.35;90.24;100487.23;107025;1260;60545;-40
2023/01/22 02:09:49;;;;;;;33.40;19.70;;;;;;;4.46;89.94;100495.84;107015;1259;61715;-40
2023/01/22 02:12:17;;;;;;;31.80;20.10;;;;;;;4.50;89.81;100493.99;107099;1259;72007;-40
2023/01/22 02:14:45;;;;;;;37.20;18.80;;;;;;;4.50;89.23;100497.41;107105;1262;67970;-40
2023/01/22 02:17:14;;;;;;;25.50;17.30;;;;;;;4.43;88.76;100502.42;107005;1263;73886;-40
2023/01/22 02:19:42;;;;;;;24.90;17.30;;;;;;;4.43;88.60;100501.79;107094;1257;62782;-40
2023/01/22 02:22:13;;;;;;;29.40;17.10;;;;;;;4.50;88.04;100505.98;107038;1258;60976;-40
2023/01/22 02:24:40;;;;;;;28.10;16.70;;;;;;;4.49;87.65;100506.36;107050;1257;74604;-40
2023/01/22 02:27:08;;;;;;;34.10;18.10;;;;;;;4.47;87.80;100509.89;107067;1258;67169;-40
2023/01/22 02:29:35;;;;;;;27.70;17.50;;;;;;;4.48;87.76;100511.48;106991;1260;74792;-40
2023/01/22 02:32:03;;;;;;;27.20;17.30;;;;;;;4.48;87.18;100510.52;107059;1263;61049;-40
2023/01/22 02:34:30;;;;;;;25.40;16.60;;;;;;;4.48;86.76;100507.30;107041;1263;59208;-40
2023/01/22 02:36:58;;;;;;;30.70;17.80;;;;;;;4.45;86.74;100511.54;107051;1263;71380;-40
2023/01/22 02:39:25;;;;;;;30.70;16.30;;;;;;;4.41;86.45;100510.29;106959;1257;71043;-40
2023/01/22 02:41:52;;;;;;;25.30;16.90;;;;;;;4.33;86.43;100507.50;106925;1260;72353;-40
2023/01/22 02:44:20;;;;;;;23.80;16.30;;;;;;;4.30;86.39;100511.21;107011;1257;61426;-40
2023/01/22 02:46:47;;;;;;;27.30;17.40;;;;;;;4.33;86.52;100510.45;106914;1264;60818;-41
2023/01/22 02:49:14;;;;;;;32.40;16.70;;;;;;;4.38;86.68;100512.81;106931;1257;73797;-40
2023/01/22 02:51:41;;;;;;;25.50;16.30;;;;;;;4.38;86.77;100513.61;106978;1265;69337;-40
2023/01/22 02:54:08;;;;;;;25.70;17.00;;;;;;;4.35;86.67;100517.25;107024;1263;71056;-40
2023/01/22 02:56:35;;;;;;;25.20;15.90;;;;;;;4.36;86.77;100513.16;107009;1260;62816;-40
2023/01/22 02:59:03;;;;;;;31.20;17.10;;;;;;;4.42;86.58;100513.50;107042;1261;61031;-40
2023/01/22 03:01:31;;;;;;;29.00;17.50;;;;;;;4.45;86.13;100514.52;107131;1262;74255;-40
2023/01/22 03:04:11;;;;;;;30.70;16.90;;;;;;;4.44;86.39;100516.17;106993;1265;70164;-40
2023/01/22 03:06:44;;;;;;;31.70;17.60;;;;;;;4.40;86.16;100526.14;107079;1258;71201;-40
2023/01/22 03:09:13;;;;;;;24.00;16.80;;;;;;;4.36;86.30;100517.50;107076;1263;63500;-40
2023/01/22 03:11:40;;;;;;;32.50;16.70;;;;;;;4.41;86.38;100521.41;106991;1259;59538;-40
2023/01/22 03:22:30;;;;;;;28.90;16.40;;;;;;;4.34;85.83;100530.63;107008;1258;59899;-40
2023/01/22 03:24:59;;;;;;;24.60;16.40;;;;;;;4.34;85.85;100534.18;106914;1258;60642;-40
2023/01/22 03:27:27;;;;;;;25.60;16.70;;;;;;;4.42;85.82;100540.95;107008;1263;71766;-40
2023/01/22 03:29:54;;;;;;;31.80;17.50;;;;;;;4.44;85.55;100539.20;106234;1258;1002902;-40
2023/01/22 03:32:21;;;;;;;35.20;17.20;;;;;;;4.37;85.32;100543.70;106921;1264;72401;-40
2023/01/22 03:34:48;;;;;;;23.80;15.10;;;;;;;4.27;85.30;100546.94;107045;1263;63500;-40
2023/01/22 03:37:16;;;;;;;25.50;16.50;;;;;;;4.27;85.60;100551.08;107114;1261;59510;-40
2023/01/22 03:39:45;;;;;;;30.30;16.80;;;;;;;4.32;85.62;100551.49;107087;1263;72293;-40
2023/01/22 03:42:19;;;;;;;35.50;17.90;;;;;;;4.35;85.47;100550.16;107303;1260;69950;-40
2023/01/22 03:44:46;;;;;;;28.40;17.80;;;;;;;4.29;85.55;100554.75;107308;1254;72656;-40
2023/01/22 03:47:14;;;;;;;27.70;17.50;;;;;;;4.22;85.74;100555.00;107422;1257;60230;-40
2023/01/22 03:49:42;;;;;;;32.30;17.50;;;;;;;4.25;85.84;100553.25;107253;1254;61314;-40
2023/01/22 03:52:09;;;;;;;36.40;17.80;;;;;;;4.28;85.71;100558.27;107285;1254;74667;-40
2023/01/22 03:54:38;;;;;;;31.00;18.70;;;;;;;4.25;85.70;100560.23;107432;1254;67539;-40
2023/01/22 03:57:06;;;;;;;34.10;18.20;;;;;;;4.18;85.94;100565.31;107456;1254;72460;-40
2023/01/22 03:59:34;;;;;;;26.90;17.10;;;;;;;4.11;86.26;100565.29;107428;1255;59603;-40
2023/01/22 04:02:02;;;;;;;28.20;17.70;;;;;;;4.14;86.28;100565.52;107454;1254;60265;-40
2023/01/22 04:04:29;;;;;;;30.20;18.70;;;;;;;4.22;86.58;100565.52;107430;1255;73170;-40
2023/01/22 04:06:57;;;;;;;32.80;19.20;;;;;;;4.23;86.67;100565.23;107302;1254;70335;-40
2023/01/22 04:09:24;;;;;;;28.50;17.90;;;;;;;4.24;86.76;100572.42;107434;1258;72969;-40
2023/01/22 04:11:51;;;;;;;32.90;19.20;;;;;;;4.26;86.58;100576.00;107372;1254;62335;-40
2023/01/22 04:14:18;;;;;;;31.80;18.80;;;;;;;4.30;86.38;100578.04;107471;1254;61378;-40
2023/01/22 04:16:54;;;;;;;31.90;19.60;;;;;;;4.30;86.33;100583.35;107430;1254;71860;-40
2023/01/22 04:19:27;;;;;;;35.50;19.60;;;;;;;4.26;86.49;100578.27;107433;1254;69343;-40
2023/01/22 04:22:29;;;;;;;29.90;18.00;;;;;;;4.22;86.58;100579.43;106869;1261;74052;-40
2023/01/22 04:24:57;;;;;;;32.50;18.30;;;;;;;4.22;86.49;100580.19;107348;1254;60208;-40
2023/01/22 04:27:24;;;;;;;30.20;19.20;;;;;;;4.22;86.56;100585.02;107440;1254;61953;-40
2023/01/22 04:29:53;;;;;;;32.90;18.60;;;;;;;4.20;86.55;100588.33;107445;1258;71905;-40
2023/01/22 04:32:22;;;;;;;28.70;17.90;;;;;;;4.17;86.79;100590.02;107342;1254;68155;-40
2023/01/22 04:35:08;;;;;;;29.30;17.80;;;;;;;4.22;86.76;100590.80;107292;1254;74476;-40
2023/01/22 04:37:54;;;;;;;33.90;19.20;;;;;;;4.26;86.87;100595.65;107371;1259;59602;-40
2023/01/22 04:40:22;;;;;;;33.50;19.90;;;;;;;4.29;87.14;100598.13;107433;1254;59577;-40
2023/01/22 04:42:49;;;;;;;31.50;18.70;;;;;;;4.30;87.03;100596.18;107281;1254;72035;-40
2023/01/22 04:45:16;;;;;;;33.10;18.60;;;;;;;4.35;86.68;100598.21;107430;1254;69848;-40
2023/01/22 04:47:46;;;;;;;28.60;17.50;;;;;;;4.37;86.27;100597.27;107405;1254;71450;-40
2023/01/22 04:50:20;;;;;;;30.50;18.40;;;;;;;4.34;86.24;100602.10;107339;1254;62383;-40
2023/01/22 04:52:51;;;;;;;28.50;16.50;;;;;;;4.31;86.23;100601.23;107415;1259;61429;-40
2023/01/22 04:55:19;;;;;;;26.20;15.70;;;;;;;4.28;86.27;100604.21;107436;1254;74347;-40
2023/01/22 04:57:56;;;;;;;25.80;15.70;;;;;;;4.31;86.17;100608.15;107494;1254;67738;-40
2023/01/22 05:00:23;;;;;;;26.30;16.30;;;;;;;4.25;86.31;100601.02;107367;1260;72445;-41
2023/01/22 05:02:55;;;;;;;26.40;15.90;;;;;;;4.29;86.30;100611.45;107403;1253;60380;-40
2023/01/22 05:05:22;;;;;;;24.30;14.50;;;;;;;4.27;86.40;100616.25;107401;1259;60327;-40
2023/01/22 05:07:49;;;;;;;24.10;15.50;;;;;;;4.34;86.51;100619.55;107424;1255;74442;-40
2023/01/22 05:10:17;;;;;;;23.00;15.20;;;;;;;4.42;86.29;100620.96;107222;1254;70497;-40
2023/01/22 05:12:45;;;;;;;27.10;15.40;;;;;;;4.44;86.12;100624.42;107433;1254;71527;-40
2023/01/22 05:15:12;;;;;;;22.10;13.70;;;;;;;4.46;86.03;100625.25;107292;1254;59755;-40
2023/01/22 05:17:51;;;;;;;21.50;12.50;;;;;;;4.51;85.64;100629.77;107381;1259;60363;-40
2023/01/22 05:20:20;;;;;;;18.40;12.10;;;;;;;4.59;85.30;100627.17;107565;1254;72782;-40
2023/01/22 05:22:48;;;;;;;21.40;13.40;;;;;;;4.63;85.17;100628.58;107529;1260;70281;-40
2023/01/22 05:25:17;;;;;;;19.80;12.60;;;;;;;4.63;84.89;100632.77;107458;1254;74224;-40
2023/01/22 05:27:45;;;;;;;21.90;13.20;;;;;;;4.63;84.91;100637.28;107516;1254;59461;-40
2023/01/22 05:30:16;;;;;;;21.00;13.20;;;;;;;4.64;84.65;100639.86;107456;1254;60305;-40
2023/01/22 05:32:55;;;;;;;17.20;11.90;;;;;;;4.69;84.33;100641.50;107436;1254;72602;-40
2023/01/22 05:35:23;;;;;;;18.30;11.90;;;;;;;4.75;83.90;100647.34;107336;1254;67669;-40
2023/01/22 05:37:50;;;;;;;17.90;12.10;;;;;;;4.73;83.58;100647.30;107490;1254;71553;-40
2023/01/22 05:40:19;;;;;;;18.30;11.90;;;;;;;4.72;83.53;100653.13;107442;1254;60454;-40
2023/01/22 05:42:46;;;;;;;17.20;12.10;;;;;;;4.73;83.53;100649.81;107509;1254;62657;-40
2023/01/22 05:45:13;;;;;;;17.30;10.80;;;;;;;4.74;83.31;100649.59;107413;1254;74985;-40
2023/01/22 05:47:59;;;;;;;17.70;11.10;;;;;;;4.81;83.09;100652.14;107399;1254;67623;-40
2023/01/22 05:50:35;;;;;;;17.10;11.50;;;;;;;4.80;82.72;100659.45;107405;1254;72038;-40
2023/01/22 05:53:08;;;;;;;15.70;11.80;;;;;;;4.76;82.59;100665.90;107385;1254;60549;-40
2023/01/22 05:55:36;;;;;;;16.90;10.90;;;;;;;4.72;82.47;100665.53;107464;1254;60435;-40
2023/01/22 05:58:04;;;;;;;16.60;10.90;;;;;;;4.67;82.43;100670.70;107498;1257;73002;-40
2023/01/22 06:00:33;;;;;;;13.80;10.30;;;;;;;4.66;82.33;100674.77;107505;1254;67598;-40
2023/01/22 06:03:01;;;;;;;15.40;10.40;;;;;;;4.66;82.18;100674.73;107505;1253;71729;-40
2023/01/22 06:05:35;;;;;;;15.90;10.90;;;;;;;4.60;82.17;100674.75;107454;1253;60546;-40
2023/01/22 06:08:04;;;;;;;15.30;10.60;;;;;;;4.52;82.32;100673.46;107441;1254;61840;-40
2023/01/22 06:10:38;;;;;;;15.80;9.80;;;;;;;4.44;82.51;100676.02;107462;1256;72579;-41
2023/01/22 06:13:05;;;;;;;13.10;9.50;;;;;;;4.43;82.60;100685.87;107444;1254;70156;-40
2023/01/22 06:15:32;;;;;;;12.10;9.30;;;;;;;4.42;82.61;100684.91;107483;1254;71640;-40
2023/01/22 06:18:11;;;;;;;12.70;9.00;;;;;;;4.34;82.85;100686.60;107462;1254;60464;-40
2023/01/22 06:20:38;;;;;;;13.30;9.00;;;;;;;4.28;83.18;100687.32;107455;1254;61067;-40
2023/01/22 06:23:06;;;;;;;12.30;8.60;;;;;;;4.27;83.15;100687.38;107501;1254;73003;-40
2023/01/22 06:25:33;;;;;;;13.20;8.70;;;;;;;4.26;83.27;100689.89;107308;1254;70192;-40
2023/01/22 06:28:08;;;;;;;12.30;8.10;;;;;;;4.18;83.55;100695.54;107492;1254;72057;-40
2023/01/22 06:30:36;;;;;;;12.20;8.70;;;;;;;4.12;83.85;100699.52;107316;1253;61118;-40
2023/01/22 06:33:04;;;;;;;13.00;8.80;;;;;;;4.11;84.17;100702.55;107342;1254;60370;-40
2023/01/22 06:35:31;;;;;;;12.90;9.30;;;;;;;4.12;84.39;100705.15;107291;1254;76018;-40
2023/01/22 06:37:58;;;;;;;14.80;8.90;;;;;;;4.09;84.68;100710.50;107303;1254;68699;-40
2023/01/22 06:40:26;;;;;;;11.30;7.80;;;;;;;4.03;84.83;100707.77;107248;1256;74864;-40
2023/01/22 06:42:56;;;;;;;12.00;7.80;;;;;;;3.99;84.87;100704.31;107467;1257;60558;-40
2023/01/22 06:45:23;;;;;;;11.40;7.70;;;;;;;3.98;84.94;100709.43;107466;1254;61681;-40
2023/01/22 06:47:52;;;;;;;11.90;8.60;;;;;;;3.91;85.03;100723.48;107482;1254;72378;-40
2023/01/22 06:50:19;;;;;;;11.50;8.40;;;;;;;3.88;85.46;100734.25;107431;1254;70995;-40
2023/01/22 06:52:46;;;;;;;10.40;7.80;;;;;;;3.91;85.82;100740.34;107433;1254;73669;-40
2023/01/22 06:55:14;;;;;;;11.50;7.90;;;;;;;4.02;85.63;100734.02;107298;1253;62657;-41
2023/01/22 06:57:41;;;;;;;12.00;8.20;;;;;;;4.13;85.76;100735.09;107289;1253;60570;-40
2023/01/22 07:00:09;;;;;;;12.90;9.40;;;;;;;4.18;85.51;100735.48;107443;1253;72320;-40
2023/01/22 07:02:37;;;;;;;15.30;9.20;;;;;;;4.23;85.26;100739.55;107452;1254;70160;-40
2023/01/22 07:05:04;;;;;;;13.10;8.50;;;;;;;4.25;85.38;100741.63;107426;1253;73839;-40
2023/01/22 07:07:31;;;;;;;15.20;9.60;;;;;;;4.29;84.89;100748.25;107458;1253;60341;-40
2023/01/22 07:10:00;;;;;;;14.60;9.50;;;;;;;4.31;84.83;100747.31;107412;1253;60316;-40
2023/01/22 07:12:27;;;;;;;15.60;9.40;;;;;;;4.31;84.94;100748.83;107474;1254;75544;-40
2023/01/22 07:14:55;;;;;;;14.80;9.00;;;;;;;4.25;84.78;100750.98;107429;1254;69808;-40
2023/01/22 07:17:22;;;;;;;13.30;9.20;;;;;;;4.21;84.92;100755.79;107463;1254;71452;-40
2023/01/22 07:19:49;;;;;;;13.80;9.90;;;;;;;4.20;84.91;100751.66;107428;1254;61488;-40
2023/01/22 07:22:16;;;;;;;14.30;9.90;;;;;;;4.16;85.09;100753.15;107445;1254;62553;-40
2023/01/22 07:24:43;;;;;;;13.60;9.70;;;;;;;4.14;85.64;100753.71;107468;1254;75273;-40
2023/01/22 07:27:10;;;;;;;15.20;9.10;;;;;;;4.20;85.68;100753.55;107445;1253;68747;-40
2023/01/22 07:29:37;;;;;;;17.10;9.60;;;;;;;4.30;85.50;100750.28;107423;1254;72454;-40
2023/01/22 07:32:05;;;;;;;13.10;9.60;;;;;;;4.33;85.32;100751.64;107484;1254;61910;-40
2023/01/22 07:34:32;;;;;;;13.30;9.70;;;;;;;4.33;85.49;100753.73;107446;1253;59679;-40
2023/01/22 07:37:00;;;;;;;14.80;9.90;;;;;;;4.33;85.61;100754.80;107455;1253;74943;-40
2023/01/22 07:39:28;;;;;;;13.70;9.10;;;;;;;4.36;85.23;100747.54;107432;1255;68093;-40
2023/01/22 07:41:59;;;;;;;15.80;10.40;;;;;;;4.40;85.27;100754.63;107439;1254;71845;-40
2023/01/22 07:44:29;;;;;;;16.00;10.40;;;;;;;4.42;85.27;100751.39;107454;1253;59510;-40
2023/01/22 07:46:56;;;;;;;14.80;10.20;;;;;;;4.41;85.27;100748.28;107449;1253;61443;-40
2023/01/22 07:49:23;;;;;;;13.60;9.50;;;;;;;4.40;85.14;100751.42;107476;1253;75651;-40
2023/01/22 07:51:51;;;;;;;15.80;9.80;;;;;;;4.43;85.13;100751.27;107443;1259;70312;-40
2023/01/22 07:54:19;;;;;;;15.40;11.30;;;;;;;4.40;85.12;100756.02;107399;1259;71822;-40
2023/01/22 07:56:46;;;;;;;16.20;11.20;;;;;;;4.34;85.36;100755.45;107389;1259;61697;-40
2023/01/22 07:59:13;;;;;;;15.50;10.10;;;;;;;4.33;85.47;100762.00;107484;1253;60805;-40
2023/01/22 08:01:40;;;;;;;14.50;10.30;;;;;;;4.29;85.23;100768.98;107460;1253;72593;-41
2023/01/22 08:04:07;;;;;;;16.10;11.50;;;;;;;4.25;85.54;100781.21;107466;1253;70212;-40
2023/01/22 08:06:34;;;;;;;15.90;10.90;;;;;;;4.27;85.89;100790.05;107474;1253;74870;-40
2023/01/22 08:09:04;;;;;;;15.60;10.60;;;;;;;4.34;85.81;100795.13;107489;1253;60983;-40
2023/01/22 08:11:31;;;;;;;15.10;11.00;;;;;;;4.41;85.45;100799.73;107475;1253;61245;-40
2023/01/22 08:13:59;;;;;;;17.30;12.00;;;;;;;4.41;85.27;100797.14;107454;1253;73370;-40
2023/01/22 08:16:26;;;;;;;18.10;12.20;;;;;;;4.40;85.03;100795.38;107453;1259;69786;-40
2023/01/22 08:18:54;;;;;;;18.70;12.00;;;;;;;4.38;85.00;100793.10;107446;1255;74134;-40
2023/01/22 08:21:21;;;;;;;16.30;11.00;;;;;;;4.40;85.00;100799.80;107449;1258;61592;-40
2023/01/22 08:23:48;;;;;;;19.30;13.50;;;;;;;4.48;85.04;100804.08;107474;1253;60290;-40
2023/01/22 08:26:15;;;;;;;21.00;13.20;;;;;;;4.51;84.83;100803.67;107428;1253;73981;-40
2023/01/22 08:28:42;;;;;;;22.20;13.50;;;;;;;4.50;84.97;100805.77;107476;1253;70286;-40
2023/01/22 08:31:10;;;;;;;16.90;11.50;;;;;;;4.53;84.78;100814.42;107456;1254;73865;-40
2023/01/22 08:33:53;;;;;;;17.20;11.60;;;;;;;4.63;84.69;100821.91;107476;1253;61075;-40
2023/01/22 08:36:20;;;;;;;17.90;11.60;;;;;;;4.70;84.71;100823.13;107455;1254;60349;-40
2023/01/22 08:38:47;;;;;;;21.20;12.70;;;;;;;4.74;84.08;100817.24;107502;1254;72294;-40
2023/01/22 08:41:14;;;;;;;19.20;11.00;;;;;;;4.69;83.78;100810.36;107479;1259;70578;-40
2023/01/22 08:43:42;;;;;;;17.40;11.40;;;;;;;4.63;83.54;100812.30;107451;1254;71317;-40
2023/01/22 08:46:09;;;;;;;15.30;11.00;;;;;;;4.59;83.54;100814.22;107434;1253;60467;-40
2023/01/22 08:48:36;;;;;;;18.00;11.70;;;;;;;4.55;83.67;100816.30;107504;1253;61156;-40
2023/01/22 08:51:04;;;;;;;18.80;12.00;;;;;;;4.50;84.04;100816.45;107486;1253;75151;-40
2023/01/22 08:53:31;;;;;;;17.70;10.90;;;;;;;4.47;84.01;100804.45;107442;1253;70350;-40
2023/01/22 08:55:58;;;;;;;19.10;12.00;;;;;;;4.48;84.19;100802.03;107417;1253;74083;-40
2023/01/22 08:58:26;;;;;;;19.30;12.00;;;;;;;4.43;84.25;100798.70;107446;1253;60970;-40
2023/01/22 09:00:54;;;;;;;15.50;10.60;;;;;;;4.39;84.52;100806.27;107519;1253;60867;-42
2023/01/22 09:03:21;;;;;;;14.10;9.80;;;;;;;4.37;84.57;100808.84;107500;1253;76248;-40
2023/01/22 09:05:49;;;;;;;15.30;11.10;;;;;;;4.39;84.63;100809.11;107467;1254;69168;-40
2023/01/22 09:08:17;;;;;;;17.40;11.40;;;;;;;4.35;84.64;100808.44;107473;1254;74037;-40
2023/01/22 09:10:44;;;;;;;13.80;10.00;;;;;;;4.34;85.07;100801.84;107444;1254;61253;-40
2023/01/22 09:13:11;;;;;;;16.90;10.50;;;;;;;4.34;84.90;100804.53;107490;1253;60334;-40
2023/01/22 09:15:39;;;;;;;16.70;11.30;;;;;;;4.33;85.15;100799.27;107483;1253;75247;-41
2023/01/22 09:18:06;;;;;;;17.60;11.10;;;;;;;4.29;85.28;100801.46;107485;1259;66872;-40
2023/01/22 09:20:33;;;;;;;13.80;9.70;;;;;;;4.28;85.80;100798.29;107456;1254;74344;-40
2023/01/22 09:23:00;;;;;;;15.80;10.10;;;;;;;4.33;85.66;100797.17;107453;1254;62153;-40
2023/01/22 09:25:28;;;;;;;15.40;9.60;;;;;;;4.36;85.50;100803.16;107488;1259;59658;-40
2023/01/22 09:27:59;;;;;;;15.60;10.70;;;;;;;4.36;85.52;100806.55;106789;1253;1003579;-40
2023/01/22 09:30:28;;;;;;;15.80;9.60;;;;;;;4.36;85.80;100807.92;107509;1254;68901;-40
2023/01/22 09:32:56;;;;;;;18.70;10.70;;;;;;;4.39;85.45;100810.91;107491;1253;74438;-40
2023/01/22 09:35:23;;;;;;;16.40;11.00;;;;;;;4.44;85.29;100809.38;107465;1259;60943;-41
2023/01/22 09:37:50;;;;;;;17.80;10.90;;;;;;;4.43;85.11;100814.16;107304;1253;59923;-40
2023/01/22 09:40:24;;;;;;;15.60;10.50;;;;;;;4.38;85.00;100811.15;107459;1253;74738;-40
2023/01/22 09:42:53;;;;;;;13.10;9.00;;;;;;;4.40;84.96;100816.45;107434;1253;68974;-40
2023/01/22 09:45:22;;;;;;;13.80;10.00;;;;;;;4.41;84.75;100813.75;107474;1253;74083;-40
2023/01/22 09:47:52;;;;;;;15.60;10.10;;;;;;;4.37;84.63;100812.71;107484;1254;61144;-40
2023/01/22 09:50:27;;;;;;;16.80;10.80;;;;;;;4.30;84.68;100815.99;107488;1253;60553;-40
2023/01/22 09:52:56;;;;;;;16.40;9.20;;;;;;;4.31;85.20;100813.73;107506;1253;76172;-40
2023/01/22 09:55:24;;;;;;;14.00;10.10;;;;;;;4.35;85.08;100815.04;107487;1253;70777;-40
2023/01/22 09:57:52;;;;;;;17.30;10.70;;;;;;;4.33;85.01;100811.88;107341;1253;74008;-40
2023/01/22 10:00:40;;;;;;;15.70;10.10;;;;;;;4.30;85.31;100813.52;107363;1253;63335;-40
2023/01/22 10:03:19;;;;;;;14.90;8.90;;;;;;;4.34;85.40;100818.69;107465;1253;60535;-40
2023/01/22 10:05:55;;;;;;;15.00;10.00;;;;;;;4.45;85.40;100814.30;107476;1253;74882;-40
2023/01/22 10:08:53;;;;;;;16.20;10.60;;;;;;;4.45;85.32;100817.73;107509;1258;67736;-40
2023/01/22 10:11:20;;;;;;;15.20;9.80;;;;;;;4.43;85.26;100817.98;107317;1253;73763;-40
2023/01/22 10:13:48;;;;;;;14.60;9.00;;;;;;;4.40;85.25;100818.86;107464;1254;60563;-40
2023/01/22 10:16:15;;;;;;;16.40;10.70;;;;;;;4.47;85.27;100824.70;107517;1254;61531;-40
2023/01/22 10:19:31;;;;;;;14.80;10.00;;;;;;;4.51;85.27;100829.51;107452;1253;72376;-40
2023/01/22 10:22:05;;;;;;;16.50;10.60;;;;;;;4.53;85.28;100829.55;107314;1253;69428;-40
2023/01/22 10:24:32;;;;;;;17.20;11.30;;;;;;;4.51;85.12;100826.17;107446;1254;71980;-40
2023/01/22 10:27:09;;;;;;;16.50;11.00;;;;;;;4.53;84.86;100824.91;107453;1253;60535;-40
2023/01/22 10:29:37;;;;;;;20.30;12.80;;;;;;;4.48;84.90;100821.59;107467;1253;61480;-40
2023/01/22 10:32:19;;;;;;;20.70;12.90;;;;;;;4.41;85.11;100816.21;107481;1253;75113;-40
2023/01/22 10:34:59;;;;;;;16.60;10.10;;;;;;;4.38;85.35;100809.69;107474;1253;70233;-40
2023/01/22 10:37:27;;;;;;;17.80;11.60;;;;;;;4.38;85.33;100815.38;107467;1254;74085;-40
2023/01/22 10:39:58;;;;;;;16.70;10.70;;;;;;;4.37;85.60;100818.99;107437;1254;60519;-40
2023/01/22 10:42:27;;;;;;;16.30;11.10;;;;;;;4.36;85.87;100813.59;107474;1255;60303;-40
2023/01/22 10:45:08;;;;;;;15.20;9.70;;;;;;;4.37;85.71;100807.55;107485;1253;75697;-40
2023/01/22 10:47:35;;;;;;;14.60;10.40;;;;;;;4.37;85.65;100802.30;107486;1253;69282;-40
2023/01/22 10:50:13;;;;;;;15.00;9.70;;;;;;;4.32;85.82;100806.63;107299;1253;73545;-40
2023/01/22 10:52:42;;;;;;;13.90;9.00;;;;;;;4.31;86.10;100799.67;107442;1254;61959;-40
2023/01/22 10:55:24;;;;;;;13.70;9.00;;;;;;;4.37;86.08;100800.03;107499;1253;60465;-40
2023/01/22 10:57:54;;;;;;;20.20;11.10;;;;;;;4.45;86.18;100801.41;107300;1253;76166;-40
2023/01/22 11:00:27;;;;;;;17.60;10.80;;;;;;;4.47;86.15;100798.28;107498;1253;70442;-40
2023/01/22 11:02:54;;;;;;;16.60;10.10;;;;;;;4.44;86.17;100790.27;107465;1254;74947;-40
2023/01/22 11:05:23;;;;;;;21.50;12.90;;;;;;;4.47;85.96;100780.28;107439;1253;60608;-40
2023/01/22 11:07:57;;;;;;;25.40;15.50;;;;;;;4.42;85.86;100779.15;107519;1258;61515;-40
2023/01/22 11:11:00;;;;;;;24.70;14.90;;;;;;;4.30;85.92;100782.55;107461;1253;74569;-40
2023/01/22 11:13:46;;;;;;;22.30;14.50;;;;;;;4.23;86.25;100794.41;107429;1253;71123;-40
2023/01/22 11:16:23;;;;;;;29.60;17.00;;;;;;;4.25;86.83;100807.83;107450;1253;73908;-41
2023/01/22 11:18:57;;;;;;;24.00;15.70;;;;;;;4.26;86.99;100815.99;107461;1253;60520;-40
2023/01/22 11:21:28;;;;;;;25.00;14.30;;;;;;;4.25;87.03;100815.02;107462;1253;61464;-40
2023/01/22 11:24:12;;;;;;;24.30;16.10;;;;;;;4.28;86.72;100812.37;107419;1254;75112;-40
2023/01/22 11:26:58;;;;;;;25.60;16.70;;;;;;;4.24;86.75;100812.09;107481;1253;71032;-40
2023/01/22 11:29:25;;;;;;;26.10;16.20;;;;;;;4.17;87.09;100809.34;107433;1255;75067;-40
2023/01/22 11:32:31;;;;;;;23.00;15.90;;;;;;;4.17;87.13;100812.89;107441;1254;60464;-40
2023/01/22 11:35:35;;;;;;;27.00;16.80;;;;;;;4.18;87.01;100814.16;107383;1253;61188;-40
2023/01/22 11:38:09;;;;;;;24.70;15.50;;;;;;;4.12;87.36;100825.96;107425;1253;75139;-40
2023/01/22 11:40:58;;;;;;;23.70;15.00;;;;;;;4.10;87.52;100829.95;107388;1254;69726;-40
2023/01/22 11:43:57;;;;;;;25.80;16.50;;;;;;;4.15;87.28;100832.77;107372;1254;73949;-40
2023/01/22 11:47:02;;;;;;;28.10;17.20;;;;;;;4.10;87.35;100830.29;107320;1256;60544;-40
2023/01/22 11:49:48;;;;;;;26.60;15.90;;;;;;;4.00;87.53;100836.65;107274;1254;61537;-40
2023/01/22 11:53:01;;;;;;;24.80;16.30;;;;;;;4.04;87.69;100841.39;107293;1254;75099;-40
2023/01/22 11:55:40;;;;;;;27.00;17.30;;;;;;;4.06;87.77;100842.00;107408;1254;70310;-40
2023/01/22 11:58:32;;;;;;;27.60;17.50;;;;;;;4.06;88.07;100841.15;107378;1256;74082;-40
2023/01/22 12:01:09;;;;;;;29.10;17.30;;;;;;;4.09;87.43;100839.58;107289;1260;60514;-41
2023/01/22 12:04:14;;;;;;;32.30;18.60;;;;;;;4.07;87.62;100849.20;107382;1254;60335;-40
2023/01/22 12:06:48;;;;;;;32.40;17.30;;;;;;;4.01;87.56;100848.01;107301;1259;76145;-40
2023/01/22 12:09:45;;;;;;;26.30;17.70;;;;;;;3.97;87.50;100850.83;107432;1254;68753;-40
2023/01/22 12:12:48;;;;;;;35.50;20.10;;;;;;;4.03;87.76;100852.12;107096;1256;73772;-40
2023/01/22 12:15:27;;;;;;;28.80;18.00;;;;;;;3.98;87.66;100854.80;107189;1256;60713;-40
2023/01/22 12:18:04;;;;;;;27.60;17.30;;;;;;;3.94;88.05;100857.33;107360;1254;61633;-40
2023/01/22 12:20:47;;;;;;;26.90;17.10;;;;;;;4.00;87.77;100856.55;107346;1254;76021;-40
2023/01/22 12:23:24;;;;;;;29.40;19.40;;;;;;;3.98;87.53;100856.78;107320;1254;69749;-40
2023/01/22 12:25:56;;;;;;;30.90;18.20;;;;;;;3.91;87.68;100858.17;107233;1254;73571;-40
2023/01/22 12:28:43;;;;;;;29.60;18.60;;;;;;;3.90;87.78;100863.70;107354;1254;62531;-40
2023/01/22 12:31:14;;;;;;;35.00;19.80;;;;;;;4.00;87.72;100857.58;107333;1254;61418;-40
2023/01/22 12:33:42;;;;;;;32.20;19.50;;;;;;;3.99;87.87;100857.36;107363;1254;76052;-40
2023/01/22 12:36:12;;;;;;;31.00;19.20;;;;;;;3.94;87.76;100860.35;107394;1254;70298;-40
2023/01/22 12:38:55;;;;;;;;;;;;;;;3.92;87.75;100858.46;107411;1254;73695;-40
2023/01/22 12:41:38;;;;;;;33.10;19.70;;;;;;;3.90;87.95;100863.54;107332;1256;60177;-40
2023/01/22 12:44:17;;;;;;;36.70;21.50;;;;;;;3.87;88.15;100864.78;107370;1254;60603;-40